Time;durP1;ratioP1;P1;durP2;ratioP2;P2;SDS_P1;SDS_P2;PMS_P1;PMS_P2;Temp;Humidity;BMP_temperature;BMP_pressure;BME280_temperature;BME280_humidity;BME280_pressure;Samples;Min_cycle;Max_cycle;Signal;HPM_P1;HPM_P2
2022/03/27 00:02:05;;;;;;;7.22;4.50;;;13.80;99.90;;;;;;5057144;28;20056;-74
2022/03/27 00:04:30;;;;;;;6.43;4.40;;;13.60;99.90;;;;;;5024040;28;20115;-74
2022/03/27 00:06:57;;;;;;;6.72;4.35;;;13.50;99.90;;;;;;5056614;28;20253;-73
2022/03/27 00:09:22;;;;;;;7.32;4.13;;;13.40;99.90;;;;;;5053540;28;20550;-73
2022/03/27 00:11:48;;;;;;;4.72;3.65;;;13.70;99.90;;;;;;5040402;28;20269;-74
2022/03/27 00:14:16;;;;;;;39.45;4.95;;;13.60;99.90;;;;;;5040692;28;20059;-74
2022/03/27 00:16:42;;;;;;;7.43;3.30;;;12.90;99.90;;;;;;5056919;28;20044;-73
2022/03/27 00:19:07;;;;;;;4.78;3.13;;;13.20;99.90;;;;;;5019242;28;20076;-74
2022/03/27 00:21:33;;;;;;;6.25;3.75;;;13.40;99.90;;;;;;5020097;28;20359;-73
2022/03/27 00:23:59;;;;;;;5.25;3.97;;;13.00;99.90;;;;;;5037654;28;20255;-73
2022/03/27 00:26:25;;;;;;;8.07;4.43;;;13.40;99.90;;;;;;5053878;28;20363;-73
2022/03/27 00:28:52;;;;;;;5.40;3.58;;;13.10;99.90;;;;;;5053506;28;20139;-73
2022/03/27 00:31:18;;;;;;;6.95;4.00;;;13.80;99.90;;;;;;5057069;28;20040;-74
2022/03/27 00:33:45;;;;;;;6.65;4.18;;;13.00;99.90;;;;;;5067473;28;20036;-74
2022/03/27 00:36:13;;;;;;;5.95;3.80;;;13.20;99.90;;;;;;5042456;28;20240;-73
2022/03/27 00:38:40;;;;;;;7.53;4.07;;;13.20;99.90;;;;;;5052026;28;20079;-73
2022/03/27 00:41:06;;;;;;;5.07;3.53;;;13.00;99.90;;;;;;5057326;28;20090;-73
2022/03/27 00:43:35;;;;;;;5.85;3.67;;;12.90;99.90;;;;;;5026364;28;20239;-75
2022/03/27 00:46:02;;;;;;;5.25;3.85;;;13.10;99.90;;;;;;5062329;28;20048;-74
2022/03/27 00:48:28;;;;;;;5.55;4.57;;;12.70;99.90;;;;;;5056636;28;20234;-74
2022/03/27 00:50:54;;;;;;;5.15;3.63;;;13.00;99.90;;;;;;5065033;28;20051;-74
2022/03/27 00:53:21;;;;;;;7.07;5.07;;;13.00;99.90;;;;;;5040001;28;20041;-73
2022/03/27 00:55:48;;;;;;;7.05;5.00;;;12.80;99.90;;;;;;5055661;28;20041;-73
2022/03/27 00:58:16;;;;;;;13.52;5.97;;;13.10;99.90;;;;;;5052631;28;20404;-74
2022/03/27 01:00:52;;;;;;;9.20;6.20;;;13.10;99.90;;;;;;5062289;28;20040;-73
2022/03/27 01:03:21;;;;;;;7.88;5.82;;;12.90;99.90;;;;;;5073351;28;20040;-73
2022/03/27 01:05:50;;;;;;;7.18;5.07;;;13.10;99.90;;;;;;5072355;28;20044;-73
2022/03/27 01:09:35;;;;;;;11.10;6.30;;;12.80;99.90;;;;;;5042404;28;20346;-73
2022/03/27 01:11:16;;;;;;;7.72;5.82;;;13.10;99.90;;;;;;5070292;28;20119;-73
2022/03/27 01:13:48;;;;;;;8.07;5.72;;;13.00;99.90;;;;;;5044185;28;20036;-74
2022/03/27 01:16:28;;;;;;;9.23;5.72;;;12.80;99.90;;;;;;5056301;28;20369;-73
2022/03/27 01:18:54;;;;;;;9.85;5.40;;;13.10;99.90;;;;;;5059363;28;20072;-73
2022/03/27 01:21:20;;;;;;;9.32;5.97;;;13.20;99.90;;;;;;5038934;28;20044;-72
2022/03/27 01:23:45;;;;;;;14.70;5.78;;;13.00;99.90;;;;;;5070553;28;20350;-72
2022/03/27 01:26:11;;;;;;;9.40;5.60;;;13.10;99.90;;;;;;5061697;28;20124;-73
2022/03/27 01:28:37;;;;;;;11.75;5.40;;;13.40;99.90;;;;;;5021733;28;20052;-73
2022/03/27 01:31:07;;;;;;;15.55;5.40;;;13.00;99.90;;;;;;5071515;28;20239;-73
2022/03/27 01:33:33;;;;;;;14.60;5.10;;;13.40;99.90;;;;;;5056113;28;20365;-73
2022/03/27 01:35:59;;;;;;;13.77;5.80;;;13.00;99.90;;;;;;5054479;28;20048;-73
2022/03/27 01:38:26;;;;;;;11.15;4.80;;;13.50;99.90;;;;;;5039318;28;20091;-73
2022/03/27 01:40:52;;;;;;;9.02;5.05;;;13.00;99.90;;;;;;5031677;28;20078;-72
2022/03/27 01:43:18;;;;;;;11.25;5.00;;;13.40;99.90;;;;;;5052575;28;20080;-73
2022/03/27 01:45:43;;;;;;;12.43;4.72;;;13.40;99.90;;;;;;5043375;28;20044;-72
2022/03/27 01:48:09;;;;;;;9.35;4.60;;;13.20;99.90;;;;;;5037956;28;20358;-72
2022/03/27 01:50:35;;;;;;;18.20;4.20;;;13.40;99.90;;;;;;5071511;28;20094;-74
2022/03/27 01:53:01;;;;;;;69.90;6.03;;;12.80;99.90;;;;;;5045437;28;20101;-74
2022/03/27 01:55:32;;;;;;;121.38;8.10;;;13.30;99.90;;;;;;5045518;28;20028;-75
2022/03/27 01:57:58;;;;;;;120.05;8.05;;;13.30;99.90;;;;;;5060646;28;20059;-74
2022/03/27 02:00:26;;;;;;;102.50;5.95;;;13.00;99.90;;;;;;5075731;28;20322;-72
2022/03/27 02:02:53;;;;;;;66.13;6.00;;;13.20;99.90;;;;;;5061518;28;20227;-73
2022/03/27 02:05:19;;;;;;;79.97;5.78;;;12.70;99.90;;;;;;5045794;28;20043;-73
2022/03/27 02:07:45;;;;;;;35.25;3.70;;;12.70;99.90;;;;;;5031735;28;20223;-73
2022/03/27 02:10:11;;;;;;;61.08;4.97;;;13.10;99.90;;;;;;5065553;28;20036;-73
2022/03/27 02:12:37;;;;;;;30.40;3.58;;;12.70;99.90;;;;;;5082407;28;20045;-72
2022/03/27 02:15:07;;;;;;;18.38;3.22;;;13.30;99.90;;;;;;5081442;28;20049;-73
2022/03/27 02:17:38;;;;;;;17.38;3.13;;;12.70;99.90;;;;;;5064772;28;20291;-75
2022/03/27 02:20:08;;;;;;;66.50;4.68;;;12.90;99.90;;;;;;5048835;28;20048;-74
2022/03/27 02:22:34;;;;;;;58.47;4.47;;;12.60;99.90;;;;;;5066984;28;20044;-73
2022/03/27 02:25:00;;;;;;;7.40;3.60;;;12.60;99.90;;;;;;5065136;28;20052;-73
2022/03/27 02:27:25;;;;;;;10.68;2.92;;;12.70;99.90;;;;;;5078229;28;20052;-74
2022/03/27 02:29:51;;;;;;;4.90;3.10;;;12.70;99.90;;;;;;5048489;28;20033;-72
2022/03/27 02:32:17;;;;;;;41.08;3.83;;;13.00;99.90;;;;;;5045278;28;20060;-74
2022/03/27 02:34:42;;;;;;;29.15;2.97;;;12.60;99.90;;;;;;5061460;28;20044;-73
2022/03/27 02:37:08;;;;;;;63.22;4.93;;;12.30;99.90;;;;;;5071447;28;20158;-73
2022/03/27 02:39:34;;;;;;;7.97;3.00;;;12.60;99.90;;;;;;5080832;28;20060;-75
2022/03/27 02:42:00;;;;;;;6.13;3.13;;;12.90;99.90;;;;;;5060180;28;20037;-73
2022/03/27 02:44:25;;;;;;;9.05;3.40;;;12.80;99.90;;;;;;5035515;28;20036;-73
2022/03/27 02:46:51;;;;;;;10.98;4.25;;;12.70;99.90;;;;;;5060968;28;20121;-73
2022/03/27 02:49:17;;;;;;;10.73;3.42;;;13.10;99.90;;;;;;5065083;28;20044;-73
2022/03/27 02:51:47;;;;;;;9.90;3.75;;;13.20;99.90;;;;;;5064461;28;20100;-73
2022/03/27 02:54:13;;;;;;;15.40;4.10;;;12.90;99.90;;;;;;5081706;28;20192;-73
2022/03/27 02:56:39;;;;;;;51.38;5.25;;;13.20;99.90;;;;;;5064579;28;20103;-73
2022/03/27 02:59:05;;;;;;;61.90;5.68;;;13.10;99.90;;;;;;5078131;28;20086;-73
2022/03/27 03:01:31;;;;;;;84.60;7.00;;;12.70;99.90;;;;;;5064598;28;20090;-73
2022/03/27 03:03:57;;;;;;;109.82;7.70;;;13.20;99.90;;;;;;5078827;28;20048;-73
2022/03/27 03:06:26;;;;;;;128.75;7.25;;;12.70;99.90;;;;;;5081253;28;20384;-72
2022/03/27 03:08:52;;;;;;;99.32;6.00;;;13.00;99.90;;;;;;5078724;28;20067;-73
2022/03/27 03:11:20;;;;;;;129.43;6.57;;;12.50;99.90;;;;;;5081398;28;20338;-73
2022/03/27 03:13:47;;;;;;;104.43;5.70;;;12.60;99.90;;;;;;5054892;28;20048;-73
2022/03/27 03:16:15;;;;;;;105.38;4.93;;;12.70;99.90;;;;;;5048373;28;20331;-74
2022/03/27 03:18:42;;;;;;;96.32;4.93;;;12.40;99.90;;;;;;5064587;28;20044;-74
2022/03/27 03:21:08;;;;;;;75.18;5.10;;;12.30;99.90;;;;;;5077912;28;20063;-74
2022/03/27 03:23:34;;;;;;;57.45;3.97;;;12.20;99.90;;;;;;5076088;28;20045;-74
2022/03/27 03:26:00;;;;;;;75.85;5.32;;;12.70;99.90;;;;;;5043984;28;20048;-73
2022/03/27 03:28:26;;;;;;;74.60;5.07;;;12.50;99.90;;;;;;5026022;28;20388;-72
2022/03/27 03:30:52;;;;;;;52.95;3.70;;;12.40;99.90;;;;;;5006183;28;20061;-73
2022/03/27 03:33:19;;;;;;;75.35;6.10;;;12.80;99.90;;;;;;5027171;28;20041;-73
2022/03/27 03:35:45;;;;;;;51.90;6.32;;;12.30;99.90;;;;;;5043849;28;20029;-73
2022/03/27 03:38:11;;;;;;;36.45;5.85;;;12.40;99.90;;;;;;5043527;28;20040;-72
2022/03/27 03:40:37;;;;;;;56.72;5.88;;;12.70;99.90;;;;;;5046471;28;20119;-72
2022/03/27 03:43:03;;;;;;;68.68;5.78;;;13.00;99.90;;;;;;5063687;28;20464;-73
2022/03/27 03:45:29;;;;;;;60.63;5.88;;;13.10;99.90;;;;;;5045753;28;20234;-72
2022/03/27 03:47:55;;;;;;;30.70;5.70;;;13.30;99.90;;;;;;5027131;28;20080;-72
2022/03/27 03:50:21;;;;;;;51.35;5.78;;;12.90;99.90;;;;;;5043026;28;20245;-72
2022/03/27 03:52:47;;;;;;;65.90;5.90;;;12.80;99.90;;;;;;5029570;28;20075;-73
2022/03/27 03:55:13;;;;;;;31.45;5.57;;;12.80;99.90;;;;;;5050910;28;20037;-73
2022/03/27 03:57:38;;;;;;;22.42;5.10;;;12.90;99.90;;;;;;5027623;28;20116;-73
2022/03/27 04:00:05;;;;;;;47.28;6.03;;;12.80;99.90;;;;;;5026110;28;20047;-73
2022/03/27 04:02:30;;;;;;;66.70;6.50;;;13.00;99.90;;;;;;5043689;28;20080;-72
2022/03/27 04:04:56;;;;;;;54.60;5.72;;;13.30;99.90;;;;;;5041731;28;20047;-72
2022/03/27 04:07:22;;;;;;;46.70;5.60;;;13.50;99.90;;;;;;5027134;28;20032;-73
2022/03/27 04:09:47;;;;;;;43.13;6.22;;;13.50;99.90;;;;;;5023120;28;20083;-72
2022/03/27 04:12:13;;;;;;;50.15;5.65;;;12.80;99.90;;;;;;5026418;28;20043;-72
2022/03/27 04:14:39;;;;;;;38.85;4.93;;;13.20;99.90;;;;;;5043048;28;20059;-73
2022/03/27 04:17:05;;;;;;;43.83;4.85;;;13.30;99.90;;;;;;5042994;28;20049;-74
2022/03/27 04:19:31;;;;;;;48.00;4.85;;;12.70;99.90;;;;;;5026663;28;20044;-73
2022/03/27 04:21:57;;;;;;;45.20;5.05;;;12.90;99.90;;;;;;5025743;28;20054;-72
2022/03/27 04:24:23;;;;;;;69.28;5.55;;;12.40;99.90;;;;;;5054067;28;20075;-75
2022/03/27 04:26:49;;;;;;;60.75;6.35;;;13.10;99.90;;;;;;5029343;28;20235;-73
2022/03/27 04:29:15;;;;;;;65.43;5.40;;;12.50;99.90;;;;;;5059328;28;20036;-73
2022/03/27 04:31:40;;;;;;;36.83;4.97;;;12.90;99.90;;;;;;5053247;28;20040;-74
2022/03/27 04:34:07;;;;;;;19.30;3.97;;;12.80;99.90;;;;;;5062648;28;20036;-73
2022/03/27 04:36:32;;;;;;;51.20;4.90;;;13.00;99.90;;;;;;5051210;28;20033;-73
2022/03/27 04:38:59;;;;;;;76.60;5.55;;;12.40;99.90;;;;;;5042751;28;20057;-73
2022/03/27 04:41:25;;;;;;;72.82;6.63;;;12.90;99.90;;;;;;5054485;28;20043;-73
2022/03/27 04:43:50;;;;;;;90.93;7.25;;;12.40;99.90;;;;;;5079207;28;20234;-72
2022/03/27 04:46:17;;;;;;;74.07;5.00;;;12.90;99.90;;;;;;5056578;28;20323;-73
2022/03/27 04:48:44;;;;;;;46.53;5.45;;;12.20;99.90;;;;;;5059447;28;20056;-72
2022/03/27 04:51:10;;;;;;;100.47;5.78;;;12.60;99.90;;;;;;5064223;28;20373;-71
2022/03/27 04:53:36;;;;;;;90.93;5.75;;;12.60;99.90;;;;;;5079083;28;20048;-72
2022/03/27 04:56:01;;;;;;;66.00;4.55;;;12.90;99.90;;;;;;5045341;28;20068;-73
2022/03/27 04:58:27;;;;;;;52.72;4.82;;;12.30;99.90;;;;;;5079505;28;20040;-73
2022/03/27 05:00:53;;;;;;;68.20;5.30;;;12.30;99.90;;;;;;5078246;28;20078;-73
2022/03/27 05:03:18;;;;;;;48.50;5.05;;;12.30;99.90;;;;;;5048290;28;20056;-73
2022/03/27 05:05:44;;;;;;;70.20;6.03;;;12.20;99.90;;;;;;5042656;28;20055;-74
2022/03/27 05:08:09;;;;;;;71.65;6.18;;;12.30;99.90;;;;;;5059975;28;20284;-73
2022/03/27 05:10:35;;;;;;;143.05;8.05;;;13.00;99.90;;;;;;5043001;28;20040;-73
2022/03/27 05:13:01;;;;;;;123.90;8.05;;;12.30;99.90;;;;;;5067851;28;20041;-74
2022/03/27 05:15:27;;;;;;;80.22;6.13;;;12.30;99.90;;;;;;5063024;28;20091;-72
2022/03/27 05:17:56;;;;;;;95.57;6.28;;;12.20;99.90;;;;;;5068120;28;20041;-72
2022/03/27 05:20:23;;;;;;;115.82;7.05;;;12.10;99.90;;;;;;5025948;28;20036;-72
2022/03/27 05:22:48;;;;;;;52.55;4.50;;;13.00;99.90;;;;;;5058965;28;20068;-72
2022/03/27 05:25:16;;;;;;;48.55;4.18;;;12.30;99.90;;;;;;5057978;28;20087;-73
2022/03/27 05:27:56;;;;;;;13.85;3.38;;;12.30;99.90;;;;;;5040763;28;20045;-73
2022/03/27 05:30:24;;;;;;;9.05;2.47;;;12.80;99.90;;;;;;5061998;28;20051;-73
2022/03/27 05:32:51;;;;;;;7.53;2.90;;;12.50;99.90;;;;;;5044210;28;20044;-73
2022/03/27 05:35:17;;;;;;;10.60;2.97;;;13.20;99.90;;;;;;5045381;28;20032;-72
2022/03/27 05:37:44;;;;;;;8.18;3.22;;;12.60;99.90;;;;;;5044917;28;20235;-72
2022/03/27 05:40:13;;;;;;;9.95;2.90;;;13.50;99.90;;;;;;5061482;28;20048;-72
2022/03/27 05:42:39;;;;;;;5.85;2.80;;;12.80;99.90;;;;;;5065386;28;20106;-72
2022/03/27 05:45:07;;;;;;;8.02;2.65;;;13.60;99.90;;;;;;5047747;28;20123;-72
2022/03/27 05:47:33;;;;;;;5.65;2.83;;;13.80;99.90;;;;;;5032542;28;20054;-72
2022/03/27 05:49:59;;;;;;;9.05;2.72;;;13.70;99.90;;;;;;5065089;28;20037;-73
2022/03/27 05:52:26;;;;;;;5.20;2.50;;;13.10;99.90;;;;;;5065547;28;20051;-73
2022/03/27 05:54:52;;;;;;;14.70;3.35;;;13.50;99.90;;;;;;5064705;28;20106;-72
2022/03/27 05:57:18;;;;;;;8.10;2.70;;;13.00;99.90;;;;;;5065433;28;20036;-73
2022/03/27 05:59:47;;;;;;;6.72;2.95;;;12.80;99.90;;;;;;5048513;28;20357;-73
2022/03/27 06:02:14;;;;;;;8.32;3.00;;;13.40;99.90;;;;;;5048601;28;20097;-73
2022/03/27 06:04:41;;;;;;;8.93;2.72;;;13.10;99.90;;;;;;5064937;28;20379;-73
2022/03/27 06:07:08;;;;;;;7.45;2.80;;;13.30;99.90;;;;;;5064961;28;20330;-72
2022/03/27 06:09:34;;;;;;;8.93;2.88;;;14.00;99.90;;;;;;5065054;28;20262;-72
2022/03/27 06:12:01;;;;;;;12.57;3.28;;;13.70;99.90;;;;;;5048276;28;20107;-74
2022/03/27 06:14:27;;;;;;;21.30;3.95;;;13.60;99.90;;;;;;5060770;28;20068;-72
2022/03/27 06:16:53;;;;;;;15.50;3.78;;;13.50;99.90;;;;;;5045512;28;20246;-73
2022/03/27 06:19:18;;;;;;;19.98;4.40;;;13.70;99.90;;;;;;5017132;28;20045;-72
2022/03/27 06:21:45;;;;;;;15.35;3.75;;;14.10;99.90;;;;;;5064655;28;20039;-72
2022/03/27 06:24:12;;;;;;;21.40;3.85;;;14.80;99.90;;;;;;5064315;28;20053;-72
2022/03/27 06:26:38;;;;;;;14.63;3.83;;;14.10;99.90;;;;;;5065414;28;20040;-74
2022/03/27 06:29:04;;;;;;;26.50;5.70;;;14.80;99.90;;;;;;5080315;28;20459;-72
2022/03/27 06:31:30;;;;;;;21.15;3.97;;;14.20;99.90;;;;;;5070946;28;20070;-73
2022/03/27 06:33:56;;;;;;;21.42;5.28;;;15.10;99.90;;;;;;5060200;28;20028;-74
2022/03/27 06:36:22;;;;;;;18.77;4.38;;;15.10;99.90;;;;;;5079865;28;20036;-73
2022/03/27 06:38:48;;;;;;;24.98;5.38;;;14.50;99.90;;;;;;5075298;28;20036;-74
2022/03/27 06:41:14;;;;;;;19.75;4.90;;;15.20;99.90;;;;;;5044447;28;20048;-73
2022/03/27 06:43:39;;;;;;;24.92;6.82;;;15.80;99.90;;;;;;5063809;28;20079;-74
2022/03/27 06:46:06;;;;;;;23.73;6.05;;;14.70;99.90;;;;;;5079652;28;20342;-74
2022/03/27 06:48:32;;;;;;;23.65;5.28;;;15.00;99.90;;;;;;5081422;28;20048;-72
2022/03/27 06:50:58;;;;;;;34.30;6.22;;;15.30;99.90;;;;;;5071011;28;20338;-73
2022/03/27 06:53:24;;;;;;;26.38;5.95;;;15.20;99.90;;;;;;5068533;28;20146;-73
2022/03/27 06:55:51;;;;;;;34.08;7.28;;;15.30;99.90;;;;;;5076005;28;20341;-73
2022/03/27 06:58:17;;;;;;;39.53;7.55;;;16.00;99.90;;;;;;5081074;28;20036;-73
2022/03/27 07:03:28;;;;;;;34.92;6.68;;;16.30;99.90;;;;;;5062794;28;20046;-74
2022/03/27 07:05:54;;;;;;;32.08;6.95;;;15.50;99.90;;;;;;5025779;28;20219;-74
2022/03/27 07:08:20;;;;;;;34.15;6.80;;;15.50;99.90;;;;;;5056528;28;20204;-75
2022/03/27 07:10:48;;;;;;;36.33;8.07;;;16.60;99.90;;;;;;5076061;28;20049;-72
2022/03/27 07:13:15;;;;;;;37.72;7.07;;;15.70;99.90;;;;;;5043863;28;20041;-72
2022/03/27 07:15:42;;;;;;;34.85;5.97;;;15.50;99.90;;;;;;5062500;28;20276;-73
2022/03/27 07:18:09;;;;;;;27.27;6.38;;;16.50;99.90;;;;;;5046937;28;20048;-72
2022/03/27 07:20:38;;;;;;;38.65;6.95;;;16.00;99.90;;;;;;5047401;28;20215;-75
2022/03/27 07:23:05;;;;;;;39.20;7.55;;;15.80;99.90;;;;;;5047785;28;20048;-73
2022/03/27 07:25:34;;;;;;;38.30;8.13;;;15.90;99.90;;;;;;5053436;28;20335;-74
2022/03/27 07:28:01;;;;;;;37.75;7.30;;;15.80;99.90;;;;;;5073424;28;20106;-73
2022/03/27 07:30:30;;;;;;;32.60;7.10;;;15.90;99.90;;;;;;5079301;28;20040;-73
2022/03/27 07:32:57;;;;;;;31.73;7.10;;;15.70;99.90;;;;;;5047007;28;20304;-74
2022/03/27 07:35:24;;;;;;;37.88;7.20;;;15.70;99.90;;;;;;5079957;28;20029;-72
2022/03/27 07:37:51;;;;;;;31.83;7.10;;;16.50;99.90;;;;;;5065452;28;20048;-72
2022/03/27 07:40:17;;;;;;;36.17;8.07;;;16.00;99.90;;;;;;5072989;28;20032;-71
2022/03/27 07:42:49;;;;;;;33.97;7.75;;;16.10;99.90;;;;;;5061036;28;20115;-72
2022/03/27 07:45:18;;;;;;;32.65;7.15;;;15.90;99.90;;;;;;5079863;28;20049;-72
2022/03/27 07:47:45;;;;;;;31.90;6.93;;;16.10;99.90;;;;;;5069675;28;20043;-74
2022/03/27 07:50:11;;;;;;;31.10;6.95;;;16.30;99.90;;;;;;5058159;28;20047;-74
2022/03/27 07:52:38;;;;;;;27.30;6.75;;;16.10;99.90;;;;;;5067525;28;20037;-72
2022/03/27 07:55:06;;;;;;;32.10;7.03;;;15.90;99.90;;;;;;5048606;28;20032;-74
2022/03/27 07:57:31;;;;;;;25.38;6.55;;;15.50;99.90;;;;;;5062944;28;20048;-74
2022/03/27 07:59:57;;;;;;;36.28;8.38;;;15.90;99.90;;;;;;5069938;28;20040;-72
2022/03/27 08:02:23;;;;;;;36.22;7.53;;;15.70;99.90;;;;;;5072790;28;20044;-72
2022/03/27 08:04:49;;;;;;;28.75;6.50;;;15.20;99.90;;;;;;5030581;28;20084;-74
2022/03/27 08:07:15;;;;;;;34.25;8.18;;;15.20;99.90;;;;;;5026944;28;20184;-74
2022/03/27 08:09:42;;;;;;;27.17;7.28;;;15.10;99.90;;;;;;5065557;28;20044;-72
2022/03/27 08:12:09;;;;;;;26.77;7.43;;;15.30;99.90;;;;;;5079299;28;20122;-73
2022/03/27 08:14:35;;;;;;;31.38;6.68;;;15.30;99.90;;;;;;5072932;28;20096;-73
2022/03/27 08:17:02;;;;;;;26.95;7.45;;;15.40;99.90;;;;;;5069017;28;20037;-73
2022/03/27 08:19:28;;;;;;;26.38;7.70;;;15.00;99.90;;;;;;5056983;28;20036;-72
2022/03/27 08:21:54;;;;;;;23.98;7.53;;;15.10;99.90;;;;;;5058681;28;20364;-72
2022/03/27 08:24:20;;;;;;;26.38;6.43;;;15.50;99.90;;;;;;5075010;28;20052;-72
2022/03/27 08:27:02;;;;;;;30.50;7.40;;;15.20;99.90;;;;;;5054903;28;20053;-72
2022/03/27 08:29:34;;;;;;;29.95;6.80;;;14.90;99.90;;;;;;5062904;28;20320;-72
2022/03/27 08:32:02;;;;;;;32.63;7.05;;;14.80;99.90;;;;;;5045495;28;20354;-73
2022/03/27 08:34:30;;;;;;;25.92;6.60;;;14.30;99.90;;;;;;5045833;28;20029;-73
2022/03/27 08:37:15;;;;;;;31.90;6.53;;;14.40;99.90;;;;;;5044135;28;20206;-73
2022/03/27 08:39:44;;;;;;;26.15;7.05;;;14.00;99.90;;;;;;5041547;28;20048;-72
2022/03/27 08:42:11;;;;;;;29.50;5.57;;;14.30;99.90;;;;;;5044740;28;20071;-71
2022/03/27 08:44:37;;;;;;;30.35;6.32;;;14.30;99.90;;;;;;5045975;28;20036;-70
2022/03/27 08:47:13;;;;;;;30.30;7.18;;;13.80;99.90;;;;;;5044977;28;20121;-71
2022/03/27 08:49:40;;;;;;;29.45;7.25;;;14.00;99.90;;;;;;5058873;28;20100;-71
2022/03/27 08:52:17;;;;;;;37.55;7.78;;;14.20;99.90;;;;;;5060910;28;20212;-71
2022/03/27 08:54:52;;;;;;;32.00;7.28;;;13.80;99.90;;;;;;5054702;28;20040;-70
2022/03/27 08:57:24;;;;;;;24.02;5.47;;;13.70;99.90;;;;;;5061910;28;20222;-72
2022/03/27 08:59:53;;;;;;;29.65;7.90;;;13.40;99.90;;;;;;5061529;28;20044;-72
2022/03/27 09:02:22;;;;;;;31.35;6.00;;;13.30;99.90;;;;;;5061747;28;20048;-70
2022/03/27 09:04:53;;;;;;;31.08;6.68;;;13.20;99.90;;;;;;5045609;28;20095;-73
2022/03/27 09:07:27;;;;;;;29.50;6.13;;;13.00;99.90;;;;;;5060643;28;20039;-71
2022/03/27 09:09:54;;;;;;;25.80;6.03;;;12.90;99.90;;;;;;5045087;28;20041;-70
2022/03/27 09:12:21;;;;;;;28.60;6.60;;;12.40;99.90;;;;;;5044983;28;20227;-72
2022/03/27 09:14:48;;;;;;;23.20;6.03;;;12.30;99.90;;;;;;5049079;28;20087;-71
2022/03/27 09:17:14;;;;;;;26.92;6.00;;;12.50;99.90;;;;;;5054106;28;20048;-71
2022/03/27 09:19:48;;;;;;;27.10;6.93;;;12.40;99.90;;;;;;5019190;28;20515;-70
2022/03/27 09:22:21;;;;;;;27.23;5.57;;;12.10;99.90;;;;;;5036664;28;20047;-71
2022/03/27 09:24:58;;;;;;;28.15;5.93;;;12.30;99.90;;;;;;5036627;28;20047;-71
2022/03/27 09:27:32;;;;;;;28.30;6.43;;;12.00;99.90;;;;;;5052804;28;20057;-71
2022/03/27 09:30:07;;;;;;;29.10;5.70;;;12.30;99.90;;;;;;5057145;28;20337;-72
2022/03/27 09:32:45;;;;;;;26.20;5.43;;;12.20;99.90;;;;;;5073049;28;20050;-71
2022/03/27 09:35:18;;;;;;;19.55;4.68;;;12.10;99.90;;;;;;5073396;28;20059;-72
2022/03/27 09:37:46;;;;;;;29.77;5.72;;;12.10;99.90;;;;;;5072339;28;20045;-73
2022/03/27 09:40:13;;;;;;;32.05;5.93;;;12.00;99.90;;;;;;5072067;28;20052;-71
2022/03/27 09:42:40;;;;;;;23.15;5.22;;;11.90;99.90;;;;;;5035853;28;20041;-71
2022/03/27 09:45:21;;;;;;;26.25;5.28;;;12.10;99.90;;;;;;5053198;28;20236;-72
2022/03/27 09:47:53;;;;;;;24.45;5.72;;;12.30;99.90;;;;;;5051614;28;20278;-71
2022/03/27 09:50:32;;;;;;;26.20;5.32;;;12.00;99.90;;;;;;5042186;28;20028;-71
2022/03/27 09:53:25;;;;;;;24.95;5.68;;;12.20;99.90;;;;;;5065201;28;20040;-71
2022/03/27 09:55:58;;;;;;;22.98;4.78;;;12.10;99.90;;;;;;5073704;28;20037;-72
2022/03/27 09:58:43;;;;;;;21.25;5.50;;;12.30;99.90;;;;;;5068099;28;20095;-71
2022/03/27 10:01:22;;;;;;;25.20;6.40;;;12.10;99.90;;;;;;5063347;28;20103;-72
2022/03/27 10:04:10;;;;;;;19.60;5.68;;;12.70;99.90;;;;;;5064600;28;20045;-73
2022/03/27 10:06:38;;;;;;;25.52;5.20;;;13.10;99.90;;;;;;5074507;28;20060;-73
2022/03/27 10:09:06;;;;;;;21.48;5.00;;;13.00;99.90;;;;;;5052830;28;20041;-73
2022/03/27 10:11:33;;;;;;;24.15;5.80;;;12.50;99.90;;;;;;5041500;28;20342;-72
2022/03/27 10:13:59;;;;;;;23.30;6.15;;;13.20;99.90;;;;;;5045784;28;20098;-73
2022/03/27 10:16:30;;;;;;;23.13;5.57;;;13.30;99.90;;;;;;5073985;28;20040;-72
2022/03/27 10:19:31;;;;;;;21.55;5.22;;;13.20;99.90;;;;;;5073452;28;20091;-72
2022/03/27 10:21:58;;;;;;;21.30;5.97;;;13.30;99.90;;;;;;5060231;28;20075;-73
2022/03/27 10:24:30;;;;;;;21.45;6.10;;;13.70;99.90;;;;;;5043316;28;20052;-73
2022/03/27 10:27:01;;;;;;;22.15;5.85;;;13.30;99.90;;;;;;5055023;28;20478;-72
2022/03/27 10:29:27;;;;;;;25.73;4.75;;;13.20;99.90;;;;;;5057567;28;20068;-73
2022/03/27 10:31:53;;;;;;;24.70;6.05;;;13.30;99.90;;;;;;5049738;28;20718;-73
2022/03/27 10:34:21;;;;;;;19.90;4.43;;;13.50;99.90;;;;;;5076747;28;20380;-74
2022/03/27 10:36:57;;;;;;;20.63;5.40;;;13.40;99.90;;;;;;5061118;28;20048;-73
2022/03/27 10:39:44;;;;;;;22.02;5.18;;;13.40;99.90;;;;;;5073152;28;20361;-74
2022/03/27 10:42:19;;;;;;;21.42;5.97;;;13.20;99.90;;;;;;5061882;28;20047;-73
2022/03/27 10:44:58;;;;;;;19.85;4.95;;;13.70;99.90;;;;;;5047427;28;20071;-73
2022/03/27 10:47:25;;;;;;;22.17;5.07;;;13.00;99.90;;;;;;5066397;28;20068;-72
2022/03/27 10:50:05;;;;;;;17.67;4.90;;;13.10;99.90;;;;;;5063856;28;20339;-71
2022/03/27 10:52:57;;;;;;;19.30;4.95;;;13.40;99.90;;;;;;5077423;28;20121;-71
2022/03/27 10:55:39;;;;;;;16.63;3.88;;;13.40;99.90;;;;;;5068926;28;20200;-71
2022/03/27 10:58:40;;;;;;;20.67;5.55;;;13.40;99.90;;;;;;5070592;28;20048;-72
2022/03/27 11:01:29;;;;;;;17.15;5.10;;;12.90;99.90;;;;;;5049250;28;20129;-72
2022/03/27 11:04:10;;;;;;;18.08;4.93;;;13.10;99.90;;;;;;5057342;28;20057;-72
2022/03/27 11:06:50;;;;;;;15.60;4.35;;;13.20;99.90;;;;;;5058850;28;20045;-71
2022/03/27 11:09:33;;;;;;;12.55;3.90;;;13.20;99.90;;;;;;5056514;28;20112;-73
2022/03/27 11:12:00;;;;;;;13.95;3.88;;;13.30;99.90;;;;;;5043421;28;20263;-72
2022/03/27 11:15:05;;;;;;;18.35;4.70;;;13.20;99.90;;;;;;5056451;28;20233;-71
2022/03/27 11:17:37;;;;;;;17.52;4.18;;;13.10;99.90;;;;;;5056732;28;20053;-72
2022/03/27 11:20:20;;;;;;;19.27;4.70;;;13.10;99.90;;;;;;5057146;28;20061;-74
2022/03/27 11:22:54;;;;;;;17.70;4.40;;;13.40;99.90;;;;;;5055277;28;20048;-73
2022/03/27 11:25:38;;;;;;;17.02;3.88;;;13.40;99.90;;;;;;5076319;28;20067;-72
2022/03/27 11:28:06;;;;;;;14.02;4.20;;;13.30;99.90;;;;;;5040045;28;20061;-72
2022/03/27 11:30:35;;;;;;;17.33;4.82;;;13.40;99.90;;;;;;5039592;28;20056;-73
2022/03/27 11:33:22;;;;;;;13.20;3.22;;;13.70;99.90;;;;;;5054863;28;20044;-73
2022/03/27 11:36:00;;;;;;;16.35;3.90;;;14.00;99.90;;;;;;5059886;28;20032;-72
2022/03/27 11:38:28;;;;;;;14.07;4.70;;;13.70;99.90;;;;;;5061628;28;20438;-71
2022/03/27 11:40:55;;;;;;;16.00;3.75;;;13.90;99.90;;;;;;5056618;28;20052;-72
2022/03/27 11:43:36;;;;;;;17.55;3.97;;;14.20;99.90;;;;;;5052052;28;20052;-73
2022/03/27 11:46:02;;;;;;;16.38;4.45;;;14.00;99.90;;;;;;5075794;28;20056;-73
2022/03/27 11:48:28;;;;;;;16.70;4.20;;;14.10;99.90;;;;;;5042114;28;20063;-73
2022/03/27 11:50:55;;;;;;;17.02;3.88;;;13.90;99.90;;;;;;5059717;28;20036;-74
2022/03/27 11:53:41;;;;;;;13.27;3.67;;;14.10;99.90;;;;;;5055786;28;20054;-73
2022/03/27 11:56:11;;;;;;;14.65;4.13;;;13.80;99.90;;;;;;5055720;28;20060;-73
2022/03/27 11:58:38;;;;;;;13.23;3.70;;;13.90;99.90;;;;;;5057609;28;20082;-71
2022/03/27 12:01:09;;;;;;;14.13;4.43;;;13.90;99.90;;;;;;5075999;28;20097;-72
2022/03/27 12:03:43;;;;;;;14.70;3.55;;;14.00;99.90;;;;;;5037796;28;20044;-73
2022/03/27 12:06:10;;;;;;;10.38;3.00;;;14.00;99.90;;;;;;5070285;28;20060;-73
2022/03/27 12:08:40;;;;;;;11.18;2.85;;;13.70;92.10;;;;;;5047105;28;20057;-71
2022/03/27 12:11:07;;;;;;;12.25;3.25;;;13.50;78.20;;;;;;5056018;28;20227;-72
2022/03/27 12:13:41;;;;;;;12.20;2.90;;;13.30;78.10;;;;;;5057760;28;20078;-71
2022/03/27 12:16:14;;;;;;;8.17;2.80;;;13.50;72.70;;;;;;5047382;28;20055;-73
2022/03/27 12:18:58;;;;;;;10.15;3.20;;;13.80;79.70;;;;;;5052019;28;20609;-72
2022/03/27 12:21:24;;;;;;;9.27;2.35;;;13.70;77.50;;;;;;5075465;28;20322;-71
2022/03/27 12:24:02;;;;;;;11.02;2.13;;;13.40;75.30;;;;;;5069846;28;20273;-72
2022/03/27 12:32:17;;;;;;;10.75;2.75;;;13.80;67.90;;;;;;5065366;28;20111;-72
2022/03/27 12:34:50;;;;;;;8.07;2.30;;;13.80;62.60;;;;;;5059798;28;20036;-73
2022/03/27 12:37:26;;;;;;;6.68;1.88;;;13.70;50.50;;;;;;5074846;28;20097;-73
2022/03/27 12:39:52;;;;;;;6.80;2.33;;;13.80;56.30;;;;;;5075592;28;20330;-72
2022/03/27 12:42:32;;;;;;;6.45;2.08;;;14.00;56.90;;;;;;5058068;28;20141;-71
2022/03/27 12:45:22;;;;;;;5.22;1.60;;;13.90;52.90;;;;;;5075031;28;20150;-73
2022/03/27 12:48:00;;;;;;;6.60;1.98;;;13.90;46.30;;;;;;5072476;28;20064;-73
2022/03/27 12:50:38;;;;;;;6.57;2.17;;;13.80;50.60;;;;;;5074174;28;20047;-72
2022/03/27 12:53:06;;;;;;;9.18;2.72;;;13.60;53.00;;;;;;5038963;28;20211;-72
2022/03/27 12:56:01;;;;;;;5.85;1.90;;;13.50;56.00;;;;;;5054668;28;20045;-72
2022/03/27 12:58:37;;;;;;;7.43;2.60;;;13.60;53.40;;;;;;5068397;28;20118;-72